createdAt,value
2022-11-24T00:01:09.420Z,81.37
2022-11-24T00:03:37.030Z,80.68
2022-11-24T00:06:11.902Z,80.86
2022-11-24T00:08:40.135Z,80.68
2022-11-24T00:11:09.882Z,80.98
2022-11-24T00:13:40.478Z,81.11
2022-11-24T00:16:12.997Z,81.38
2022-11-24T00:18:41.090Z,81.28
2022-11-24T00:21:08.550Z,81.60
2022-11-24T00:23:36.146Z,81.09
2022-11-24T00:26:08.858Z,80.82
2022-11-24T00:28:36.889Z,81.31
2022-11-24T00:31:05.547Z,81.30
2022-11-24T00:33:32.753Z,81.26
2022-11-24T00:36:00.777Z,81.07
2022-11-24T00:38:28.238Z,81.25
2022-11-24T00:40:55.315Z,80.84
2022-11-24T00:43:22.406Z,81.37
2022-11-24T00:45:49.610Z,81.02
2022-11-24T00:48:16.732Z,81.25
2022-11-24T00:50:43.818Z,80.72
2022-11-24T00:53:10.888Z,80.79
2022-11-24T00:55:37.944Z,80.91
2022-11-24T00:58:04.990Z,80.82
2022-11-24T01:00:32.058Z,81.04
2022-11-24T01:02:59.233Z,80.48
2022-11-24T01:05:26.633Z,80.81
2022-11-24T01:07:54.111Z,80.76
2022-11-24T01:10:21.542Z,80.83
2022-11-24T01:12:48.652Z,81.17
2022-11-24T01:15:16.094Z,80.78
2022-11-24T01:17:43.506Z,80.73
2022-11-24T01:20:10.866Z,80.84
2022-11-24T01:22:42.304Z,80.87
2022-11-24T01:25:10.780Z,81.14
2022-11-24T01:27:38.350Z,81.53
2022-11-24T01:30:06.512Z,81.81
2022-11-24T01:32:36.152Z,81.86
2022-11-24T01:35:04.950Z,81.36
2022-11-24T01:37:32.376Z,80.90
2022-11-24T01:39:59.448Z,81.09
2022-11-24T01:42:26.565Z,80.97
2022-11-24T01:45:30.385Z,80.74
2022-11-24T01:47:57.516Z,81.17
2022-11-24T01:50:24.997Z,80.81
2022-11-24T01:52:54.140Z,81.54
2022-11-24T01:55:24.407Z,81.85
2022-11-24T01:57:56.555Z,81.71
2022-11-24T02:00:23.700Z,81.44
2022-11-24T02:02:53.022Z,81.54
2022-11-24T02:05:26.181Z,82.11
2022-11-24T02:07:54.520Z,81.75
2022-11-24T02:10:22.046Z,82.23
2022-11-24T02:12:52.847Z,81.89
2022-11-24T02:15:20.211Z,81.94
2022-11-24T02:17:47.643Z,82.31
2022-11-24T02:20:15.441Z,82.06
2022-11-24T02:22:51.621Z,81.90
2022-11-24T02:25:30.842Z,81.69
2022-11-24T02:27:59.377Z,82.18
2022-11-24T02:30:26.723Z,82.19
2022-11-24T02:32:54.014Z,81.95
2022-11-24T02:35:21.213Z,82.05
2022-11-24T02:37:48.545Z,82.01
2022-11-24T02:40:16.727Z,82.20
2022-11-24T02:42:46.005Z,82.30
2022-11-24T02:45:14.751Z,82.31
2022-11-24T02:47:42.018Z,81.79
2022-11-24T02:50:09.319Z,82.08
2022-11-24T02:52:36.398Z,82.73
2022-11-24T02:55:04.148Z,82.75
2022-11-24T02:57:31.404Z,82.59
2022-11-24T02:59:58.514Z,83.68
2022-11-24T03:02:25.713Z,83.20
2022-11-24T03:04:52.819Z,83.40
2022-11-24T03:07:20.044Z,83.53
2022-11-24T03:09:47.208Z,83.46
2022-11-24T03:12:14.535Z,83.11
2022-11-24T03:14:41.628Z,83.03
2022-11-24T03:17:08.762Z,83.02
2022-11-24T03:19:35.809Z,83.54
2022-11-24T03:22:03.259Z,82.63
2022-11-24T03:24:30.371Z,82.99
2022-11-24T03:26:57.477Z,82.92
2022-11-24T03:29:24.604Z,83.38
2022-11-24T03:31:51.642Z,83.24
2022-11-24T03:34:18.967Z,83.00
2022-11-24T03:36:46.014Z,83.20
2022-11-24T03:39:13.101Z,82.91
2022-11-24T03:41:40.203Z,82.63
2022-11-24T03:44:07.248Z,83.20
2022-11-24T03:46:34.458Z,82.84
2022-11-24T03:49:01.633Z,82.94
2022-11-24T03:51:28.671Z,83.25
2022-11-24T03:53:55.717Z,83.37
2022-11-24T03:56:22.756Z,82.83
2022-11-24T03:58:50.071Z,83.06
2022-11-24T04:01:17.160Z,82.78
2022-11-24T04:03:44.265Z,83.40
2022-11-24T04:06:11.389Z,82.93
2022-11-24T04:08:38.437Z,83.91
2022-11-24T04:11:05.563Z,83.90
2022-11-24T04:13:32.673Z,83.47
2022-11-24T04:15:59.791Z,83.43
2022-11-24T04:18:26.982Z,83.94
2022-11-24T04:20:54.120Z,83.75
2022-11-24T04:23:21.214Z,84.14
2022-11-24T04:25:48.719Z,84.33
2022-11-24T04:28:15.933Z,84.51
2022-11-24T04:30:45.033Z,84.70
2022-11-24T04:33:12.901Z,84.79
2022-11-24T04:35:40.092Z,85.66
2022-11-24T04:38:07.163Z,86.28
2022-11-24T04:40:34.250Z,86.85
2022-11-24T04:43:01.310Z,86.46
2022-11-24T04:45:28.359Z,86.81
2022-11-24T04:47:55.544Z,87.09
2022-11-24T04:50:22.698Z,87.45
2022-11-24T04:52:49.867Z,88.29
2022-11-24T04:55:16.901Z,88.34
2022-11-24T04:57:43.974Z,88.75
2022-11-24T05:00:11.664Z,88.14
2022-11-24T05:02:39.229Z,88.58
2022-11-24T05:05:06.947Z,89.05
2022-11-24T05:07:34.824Z,88.71
2022-11-24T05:10:20.536Z,88.85
2022-11-24T05:12:55.790Z,89.53
2022-11-24T05:15:23.407Z,89.54
2022-11-24T05:17:50.547Z,89.72
2022-11-24T05:20:18.261Z,89.60
2022-11-24T05:22:45.607Z,89.96
2022-11-24T05:25:14.241Z,89.69
2022-11-24T05:27:41.975Z,89.88
2022-11-24T05:30:09.610Z,89.91
2022-11-24T05:32:36.722Z,89.86
2022-11-24T05:35:04.508Z,89.83
2022-11-24T05:37:31.611Z,89.79
2022-11-24T05:39:58.752Z,89.64
2022-11-24T05:42:46.225Z,89.69
2022-11-24T05:45:20.408Z,89.96
2022-11-24T05:47:49.458Z,89.84
2022-11-24T05:50:18.612Z,90.04
2022-11-24T05:52:45.707Z,90.15
2022-11-24T05:55:14.786Z,90.30
2022-11-24T05:57:42.410Z,89.92
2022-11-24T06:00:10.646Z,90.05
2022-11-24T06:02:37.783Z,89.49
2022-11-24T06:05:05.358Z,89.43
2022-11-24T06:07:32.490Z,89.29
2022-11-24T06:09:59.585Z,89.28
2022-11-24T06:12:26.679Z,88.95
2022-11-24T06:14:53.884Z,88.81
2022-11-24T06:17:20.921Z,88.95
2022-11-24T06:19:50.125Z,89.20
2022-11-24T06:22:19.160Z,88.36
2022-11-24T06:24:46.845Z,88.58
2022-11-24T06:27:14.239Z,88.36
2022-11-24T06:29:41.342Z,88.47
2022-11-24T06:32:08.775Z,88.06
2022-11-24T06:34:36.351Z,88.37
2022-11-24T06:37:03.615Z,88.25
2022-11-24T06:39:30.699Z,88.09
2022-11-24T06:41:57.852Z,88.81
2022-11-24T06:44:25.272Z,88.58
2022-11-24T06:46:52.455Z,88.88
2022-11-24T06:49:19.549Z,88.60
2022-11-24T06:51:46.703Z,88.11
2022-11-24T06:54:17.280Z,88.43
2022-11-24T06:56:44.388Z,88.18
2022-11-24T06:59:19.595Z,88.15
2022-11-24T07:01:47.094Z,88.08
2022-11-24T07:04:15.102Z,87.92
2022-11-24T07:06:42.968Z,87.84
2022-11-24T07:09:11.662Z,88.49
2022-11-24T07:11:39.233Z,88.25
2022-11-24T07:14:06.854Z,88.76
2022-11-24T07:16:34.347Z,88.88
2022-11-24T07:19:01.519Z,89.20
2022-11-24T07:21:30.602Z,88.63
2022-11-24T07:23:58.224Z,88.57
2022-11-24T07:26:25.933Z,88.42
2022-11-24T07:28:53.072Z,88.06
2022-11-24T07:31:22.176Z,88.01
2022-11-24T07:33:50.781Z,87.91
2022-11-24T07:36:17.937Z,87.98
2022-11-24T07:38:45.120Z,87.43
2022-11-24T07:41:14.059Z,88.09
2022-11-24T07:43:41.420Z,87.82
2022-11-24T07:46:12.825Z,88.46
2022-11-24T07:48:40.138Z,88.60
2022-11-24T07:51:07.622Z,88.54
2022-11-24T07:53:35.285Z,89.07
2022-11-24T07:56:04.063Z,88.60
2022-11-24T07:58:33.576Z,88.58
2022-11-24T08:01:09.301Z,88.79
2022-11-24T08:03:36.528Z,88.62
2022-11-24T08:08:50.825Z,88.62
2022-11-24T08:11:18.211Z,88.84
2022-11-24T08:13:45.488Z,88.66
2022-11-24T08:16:17.339Z,88.35
2022-11-24T08:18:52.324Z,88.39
2022-11-24T08:21:19.519Z,88.44
2022-11-24T08:23:46.656Z,88.38
2022-11-24T08:26:17.656Z,88.58
2022-11-24T08:28:46.177Z,89.10
2022-11-24T08:31:15.552Z,88.53
2022-11-24T08:33:42.957Z,88.86
2022-11-24T08:36:14.944Z,88.71
2022-11-24T08:38:42.222Z,88.44
2022-11-24T08:41:11.367Z,88.64
2022-11-24T08:43:38.749Z,88.71
2022-11-24T08:46:08.259Z,88.11
2022-11-24T08:48:35.535Z,88.13
2022-11-24T08:51:15.497Z,88.28
2022-11-24T08:53:42.769Z,87.44
2022-11-24T08:56:10.728Z,87.81
2022-11-24T08:58:38.282Z,87.50
2022-11-24T09:01:08.408Z,87.84
2022-11-24T09:03:35.992Z,87.64
2022-11-24T09:06:03.589Z,87.32
2022-11-24T09:08:31.417Z,87.26
2022-11-24T09:11:03.868Z,86.82
2022-11-24T09:13:31.441Z,87.16
2022-11-24T09:16:11.850Z,87.01
2022-11-24T09:18:39.415Z,87.09
2022-11-24T09:21:07.778Z,86.38
2022-11-24T09:23:35.105Z,86.29
2022-11-24T09:26:13.609Z,86.09
2022-11-24T09:28:41.616Z,86.32
2022-11-24T09:31:11.369Z,86.24
2022-11-24T09:33:39.317Z,86.41
2022-11-24T09:36:07.119Z,86.01
2022-11-24T09:38:34.494Z,85.46
2022-11-24T09:41:19.965Z,85.41
2022-11-24T09:44:05.016Z,85.49
2022-11-24T09:46:40.621Z,85.77
2022-11-24T09:49:14.273Z,85.50
2022-11-24T09:51:43.441Z,85.24
2022-11-24T09:54:15.089Z,85.09
2022-11-24T09:56:43.139Z,85.08
2022-11-24T09:59:18.799Z,85.23
2022-11-24T10:01:47.108Z,85.32
2022-11-24T10:04:17.444Z,84.88
2022-11-24T10:06:57.716Z,84.83
2022-11-24T10:09:34.429Z,84.83
2022-11-24T10:12:18.007Z,85.19
2022-11-24T10:14:59.126Z,86.09
2022-11-24T10:17:31.847Z,86.14
2022-11-24T10:20:27.292Z,86.30
2022-11-24T10:23:40.889Z,86.15
2022-11-24T10:26:16.164Z,85.78
2022-11-24T10:28:49.197Z,86.38
2022-11-24T10:31:36.834Z,86.58
2022-11-24T10:34:12.576Z,85.77
2022-11-24T10:36:52.397Z,86.31
2022-11-24T10:39:43.601Z,86.08
2022-11-24T10:42:16.028Z,86.21
2022-11-24T10:44:43.390Z,86.25
2022-11-24T10:47:18.695Z,85.82
2022-11-24T10:49:56.931Z,85.85
2022-11-24T10:52:24.914Z,86.14
2022-11-24T10:55:04.223Z,86.07
2022-11-24T10:57:39.055Z,85.73
2022-11-24T11:00:18.386Z,85.12
2022-11-24T11:02:46.490Z,84.84
2022-11-24T11:05:32.051Z,84.24
2022-11-24T11:08:14.439Z,84.74
2022-11-24T11:10:42.811Z,84.60
2022-11-24T11:13:32.325Z,84.65
2022-11-24T11:15:59.613Z,84.03
2022-11-24T11:18:32.740Z,83.38
2022-11-24T11:21:02.164Z,83.45
2022-11-24T11:23:33.717Z,83.89
2022-11-24T11:26:32.022Z,83.59
2022-11-24T11:35:04.537Z,83.08
2022-11-24T11:37:32.975Z,83.27
2022-11-24T11:40:00.472Z,82.98
2022-11-24T11:45:25.000Z,83.17
2022-11-24T11:47:56.986Z,82.67
2022-11-24T11:50:52.993Z,83.09
2022-11-24T11:53:31.450Z,82.64
2022-11-24T11:56:15.888Z,83.08
2022-11-24T11:59:18.906Z,83.04
2022-11-24T12:01:55.495Z,82.89
2022-11-24T12:04:43.821Z,82.75
2022-11-24T12:07:23.059Z,82.79
2022-11-24T12:10:09.169Z,83.06
2022-11-24T12:13:01.131Z,82.85
2022-11-24T12:15:43.322Z,82.56
2022-11-24T12:18:56.986Z,82.80
2022-11-24T12:21:34.938Z,82.95
2022-11-24T12:24:20.733Z,82.24
2022-11-24T12:27:20.891Z,82.05
2022-11-24T12:29:52.725Z,81.64
2022-11-24T12:32:43.383Z,81.46
2022-11-24T12:35:15.563Z,81.41
2022-11-24T12:38:06.216Z,81.71
2022-11-24T12:40:46.666Z,81.12
2022-11-24T12:43:21.851Z,80.95
2022-11-24T12:46:00.195Z,80.99
2022-11-24T12:48:34.408Z,80.63
2022-11-24T12:51:02.057Z,81.06
2022-11-24T12:53:32.389Z,80.68
2022-11-24T12:56:05.924Z,80.53
2022-11-24T12:58:41.160Z,80.71
2022-11-24T13:01:13.000Z,80.38
2022-11-24T13:03:59.786Z,80.42
2022-11-24T13:06:49.535Z,80.29
2022-11-24T13:09:17.205Z,80.18
2022-11-24T13:11:46.037Z,79.82
2022-11-24T13:14:13.563Z,80.22
2022-11-24T13:19:44.336Z,80.17
2022-11-24T13:22:17.367Z,80.48
2022-11-24T13:24:45.163Z,80.74
2022-11-24T13:27:15.434Z,80.64
2022-11-24T13:29:46.353Z,80.51
2022-11-24T13:32:14.507Z,80.13
2022-11-24T13:34:45.686Z,80.39
2022-11-24T13:37:28.898Z,80.46
2022-11-24T13:40:23.908Z,80.63
2022-11-24T13:43:02.232Z,80.61
2022-11-24T13:45:50.605Z,80.63
2022-11-24T13:48:21.184Z,80.47
2022-11-24T13:50:54.955Z,80.79
2022-11-24T13:53:41.008Z,80.77
2022-11-24T13:56:14.260Z,80.80
2022-11-24T13:58:57.571Z,81.90
2022-11-24T14:01:28.610Z,82.77
2022-11-24T14:04:29.412Z,83.43
2022-11-24T14:06:53.727Z,83.16
2022-11-24T14:09:32.632Z,83.79
2022-11-24T14:12:20.638Z,84.23
2022-11-24T14:14:52.419Z,84.67
2022-11-24T14:17:23.011Z,85.59
2022-11-24T14:19:52.747Z,85.82
2022-11-24T14:22:22.428Z,85.94
2022-11-24T14:25:29.845Z,85.96
2022-11-24T14:27:57.208Z,86.06
2022-11-24T14:30:25.083Z,86.20
2022-11-24T14:33:02.703Z,86.39
2022-11-24T14:35:33.404Z,86.77
2022-11-24T14:38:05.039Z,86.88
2022-11-24T14:40:39.940Z,86.97
2022-11-24T14:43:20.125Z,87.25
2022-11-24T14:45:49.726Z,86.92
2022-11-24T14:48:18.282Z,86.62
2022-11-24T14:50:45.439Z,86.41
2022-11-24T14:53:15.393Z,86.81
2022-11-24T14:55:42.463Z,86.62
2022-11-24T14:58:30.609Z,86.60
2022-11-24T15:01:28.508Z,86.76
2022-11-24T15:04:32.407Z,86.69
2022-11-24T15:07:28.925Z,86.47
2022-11-24T15:09:58.534Z,86.46
2022-11-24T15:12:34.470Z,86.34
2022-11-24T15:15:16.572Z,86.57
2022-11-24T15:17:50.127Z,86.83
2022-11-24T15:20:27.364Z,86.55
2022-11-24T15:23:16.021Z,86.32
2022-11-24T15:25:44.156Z,86.26
2022-11-24T15:28:12.010Z,86.64
2022-11-24T15:30:39.132Z,86.44
2022-11-24T15:33:17.591Z,86.34
2022-11-24T15:35:45.527Z,86.76
2022-11-24T15:38:12.919Z,86.20
2022-11-24T15:40:41.039Z,86.76
2022-11-24T15:43:22.168Z,86.74
2022-11-24T15:45:49.241Z,86.65
2022-11-24T15:48:18.099Z,86.88
2022-11-24T15:50:46.523Z,86.59
2022-11-24T15:53:23.867Z,86.76
2022-11-24T15:55:51.317Z,86.69
2022-11-24T15:58:18.826Z,87.05
2022-11-24T16:00:45.970Z,86.94
2022-11-24T16:03:45.024Z,86.81
2022-11-24T16:06:00.300Z,86.77
2022-11-24T16:08:27.355Z,86.59
2022-11-24T16:10:54.476Z,86.92
2022-11-24T16:13:21.502Z,86.54
2022-11-24T16:15:48.599Z,87.03
2022-11-24T16:18:16.242Z,86.59
2022-11-24T16:20:43.474Z,86.82
2022-11-24T16:23:10.646Z,86.66
2022-11-24T16:25:38.062Z,86.57
2022-11-24T16:28:05.207Z,86.47
2022-11-24T16:30:32.307Z,86.16
2022-11-24T16:32:59.360Z,86.60
2022-11-24T16:35:26.387Z,86.63
2022-11-24T16:37:53.496Z,86.61
2022-11-24T16:40:20.622Z,87.22
2022-11-24T16:42:47.666Z,87.04
2022-11-24T16:45:14.860Z,87.03
2022-11-24T16:47:42.903Z,86.81
2022-11-24T16:50:11.515Z,86.77
2022-11-24T16:52:38.761Z,86.91
2022-11-24T16:55:06.722Z,87.05
2022-11-24T16:57:33.824Z,87.31
2022-11-24T17:00:00.928Z,87.09
2022-11-24T17:02:28.123Z,86.69
2022-11-24T17:04:55.331Z,86.87
2022-11-24T17:07:22.564Z,86.75
2022-11-24T17:09:49.672Z,87.04
2022-11-24T17:12:16.734Z,86.96
2022-11-24T17:14:52.659Z,87.37
2022-11-24T17:17:30.328Z,86.73
2022-11-24T17:19:57.469Z,86.97
2022-11-24T17:22:24.549Z,87.39
2022-11-24T17:24:51.629Z,86.61
2022-11-24T17:27:18.793Z,87.29
2022-11-24T17:29:45.870Z,86.79
2022-11-24T17:32:13.798Z,86.84
2022-11-24T17:34:40.870Z,87.24
2022-11-24T17:37:07.966Z,86.63
2022-11-24T17:39:35.007Z,87.10
2022-11-24T17:42:02.182Z,86.77
2022-11-24T17:44:29.295Z,86.60
2022-11-24T17:46:56.465Z,86.80
2022-11-24T17:49:23.552Z,86.53
2022-11-24T17:51:50.660Z,86.34
2022-11-24T17:57:05.975Z,86.48
2022-11-24T17:59:33.105Z,86.76
2022-11-24T18:02:00.226Z,86.48
2022-11-24T18:04:27.339Z,86.54
2022-11-24T18:06:54.454Z,86.96
2022-11-24T18:09:21.520Z,86.70
2022-11-24T18:11:48.689Z,87.24
2022-11-24T18:14:15.929Z,87.30
2022-11-24T18:16:43.134Z,87.00
2022-11-24T18:19:11.157Z,86.91
2022-11-24T18:21:40.471Z,87.79
2022-11-24T18:24:09.587Z,87.71
2022-11-24T18:26:37.216Z,87.84
2022-11-24T18:29:04.802Z,87.24
2022-11-24T18:31:34.252Z,87.33
2022-11-24T18:34:02.399Z,87.63
2022-11-24T18:36:30.731Z,87.08
2022-11-24T18:39:00.971Z,87.01
2022-11-24T18:41:28.049Z,86.58
2022-11-24T18:43:55.082Z,86.73
2022-11-24T18:46:22.330Z,87.17
2022-11-24T18:48:51.937Z,87.22
2022-11-24T18:51:19.010Z,86.59
2022-11-24T18:53:46.907Z,86.42
2022-11-24T18:56:16.055Z,86.41
2022-11-24T18:58:43.648Z,86.49
2022-11-24T19:01:14.377Z,86.24
2022-11-24T19:03:49.651Z,86.71
2022-11-24T19:06:22.285Z,86.51
2022-11-24T19:08:53.082Z,86.50
2022-11-24T19:11:25.544Z,86.40
2022-11-24T19:13:53.016Z,86.77
2022-11-24T19:16:21.113Z,86.41
2022-11-24T19:18:53.920Z,86.08
2022-11-24T19:21:21.865Z,85.90
2022-11-24T19:23:49.928Z,85.91
2022-11-24T19:26:17.376Z,86.18
2022-11-24T19:28:44.941Z,86.39
2022-11-24T19:31:13.639Z,86.09
2022-11-24T19:33:41.363Z,85.88
2022-11-24T19:36:13.924Z,85.52
2022-11-24T19:38:42.076Z,85.96
2022-11-24T19:41:10.403Z,85.22
2022-11-24T19:43:38.003Z,85.98
2022-11-24T19:46:10.725Z,85.62
2022-11-24T19:48:40.346Z,85.89
2022-11-24T19:51:10.055Z,85.09
2022-11-24T19:53:37.932Z,85.69
2022-11-24T19:56:26.240Z,85.00
2022-11-24T19:58:54.358Z,85.90
2022-11-24T20:01:26.156Z,85.29
2022-11-24T20:04:04.918Z,85.30
2022-11-24T20:06:35.155Z,85.50
2022-11-24T20:09:03.681Z,85.10
2022-11-24T20:11:30.894Z,85.59
2022-11-24T20:13:58.115Z,85.76
2022-11-24T20:16:29.448Z,86.22
2022-11-24T20:18:58.719Z,85.76
2022-11-24T20:21:28.731Z,85.65
2022-11-24T20:23:58.901Z,85.57
2022-11-24T20:26:28.397Z,85.94
2022-11-24T20:28:56.809Z,86.04
2022-11-24T20:31:26.806Z,86.09
2022-11-24T20:33:54.054Z,85.92
2022-11-24T20:36:24.209Z,85.98
2022-11-24T20:38:52.714Z,85.77
2022-11-24T20:41:25.136Z,85.72
2022-11-24T20:43:53.150Z,86.45
2022-11-24T20:46:22.077Z,85.97
2022-11-24T20:48:49.348Z,85.73
2022-11-24T20:51:21.927Z,85.29
2022-11-24T20:53:50.655Z,85.40
2022-11-24T20:56:21.340Z,85.55
2022-11-24T20:58:48.924Z,85.61
2022-11-24T21:01:24.938Z,85.83
2022-11-24T21:03:57.728Z,85.40
2022-11-24T21:06:25.666Z,85.50
2022-11-24T21:08:52.929Z,86.23
2022-11-24T21:11:20.600Z,85.98
2022-11-24T21:13:48.925Z,85.50
2022-11-24T21:16:17.768Z,85.62
2022-11-24T21:18:46.355Z,85.69
2022-11-24T21:21:14.442Z,85.80
2022-11-24T21:23:41.518Z,85.53
2022-11-24T21:26:13.300Z,86.36
2022-11-24T21:28:44.360Z,86.19
2022-11-24T21:31:16.488Z,86.65
2022-11-24T21:33:50.923Z,86.90
2022-11-24T21:36:20.956Z,86.63
2022-11-24T21:38:53.265Z,86.67
2022-11-24T21:41:20.792Z,86.20
2022-11-24T21:43:47.974Z,86.54
2022-11-24T21:46:15.549Z,85.91
2022-11-24T21:48:42.986Z,85.77
2022-11-24T21:51:15.510Z,86.09
2022-11-24T21:53:43.874Z,86.18
2022-11-24T21:56:18.247Z,85.79
2022-11-24T21:58:50.401Z,85.70
2022-11-24T22:01:20.003Z,85.72
2022-11-24T22:03:47.190Z,86.31
2022-11-24T22:06:15.875Z,86.23
2022-11-24T22:08:42.909Z,86.36
2022-11-24T22:11:11.623Z,86.60
2022-11-24T22:13:39.158Z,86.08
2022-11-24T22:16:11.447Z,86.75
2022-11-24T22:18:40.602Z,86.26
2022-11-24T22:21:10.221Z,86.24
2022-11-24T22:23:37.435Z,85.96
2022-11-24T22:26:06.498Z,85.97
2022-11-24T22:28:34.248Z,86.06
2022-11-24T22:31:15.859Z,85.30
2022-11-24T22:33:46.249Z,85.74
2022-11-24T22:36:14.343Z,85.41
2022-11-24T22:38:42.187Z,85.43
2022-11-24T22:41:11.532Z,85.78
2022-11-24T22:43:39.736Z,85.81
2022-11-24T22:46:11.352Z,85.95
2022-11-24T22:48:38.898Z,85.58
2022-11-24T22:51:08.036Z,86.16
2022-11-24T22:53:35.426Z,85.67
2022-11-24T22:56:03.880Z,86.08
2022-11-24T22:58:31.922Z,85.69
2022-11-24T23:01:06.386Z,86.53
2022-11-24T23:03:34.747Z,86.77
2022-11-24T23:06:03.274Z,86.31
2022-11-24T23:08:33.093Z,86.07
2022-11-24T23:11:23.757Z,86.23
2022-11-24T23:13:55.854Z,85.86
2022-11-24T23:16:23.673Z,85.29
2022-11-24T23:18:53.900Z,85.54
2022-11-24T23:21:29.001Z,85.68
2022-11-24T23:23:57.688Z,85.06
2022-11-24T23:26:30.428Z,85.36
2022-11-24T23:28:57.480Z,84.97
2022-11-24T23:31:29.543Z,84.85
2022-11-24T23:34:01.597Z,85.14
2022-11-24T23:36:29.513Z,85.06
2022-11-24T23:38:56.735Z,85.32
2022-11-24T23:41:25.582Z,84.84
2022-11-24T23:43:52.796Z,84.40
2022-11-24T23:46:22.217Z,84.62
2022-11-24T23:48:50.444Z,85.02
2022-11-24T23:51:19.649Z,84.72
2022-11-24T23:53:47.075Z,85.24
2022-11-24T23:56:16.517Z,84.77
2022-11-24T23:58:43.893Z,84.58
